Time;durP1;ratioP1;P1;durP2;ratioP2;P2;SDS_P1;SDS_P2;PMS_P1;PMS_P2;Temp;Humidity;BMP_temperature;BMP_pressure;BME280_temperature;BME280_humidity;BME280_pressure;Samples;Min_cycle;Max_cycle;Signal;HPM_P1;HPM_P2
2022/07/27 00:02:19;;;;;;;0.00;0.00;;;;;;;;;;4955331;29;20113;-86
2022/07/27 00:04:45;;;;;;;0.00;0.00;;;;;;;;;;4955014;29;20491;-88
2022/07/27 00:07:11;;;;;;;0.00;0.00;;;;;;;;;;4954828;29;20037;-87
2022/07/27 00:09:37;;;;;;;0.00;0.00;;;;;;;;;;4955014;29;20035;-87
2022/07/27 00:12:04;;;;;;;0.00;0.00;;;;;;;;;;4954830;29;20047;-87
2022/07/27 00:14:30;;;;;;;0.00;0.00;;;;;;;;;;4954879;29;20051;-87
2022/07/27 00:16:56;;;;;;;0.00;0.00;;;;;;;;;;4954952;29;20560;-88
2022/07/27 00:19:22;;;;;;;0.00;0.00;;;;;;;;;;4955097;29;20119;-87
2022/07/27 00:21:48;;;;;;;0.00;0.00;;;;;;;;;;4938725;29;20134;-87
2022/07/27 00:24:14;;;;;;;0.00;0.00;;;;;;;;;;4954921;29;20510;-89
2022/07/27 00:26:41;;;;;;;0.00;0.00;;;;;;;;;;4954936;29;20502;-88
2022/07/27 00:29:07;;;;;;;0.00;0.00;;;;;;;;;;4954787;29;20062;-87
2022/07/27 00:31:33;;;;;;;0.00;0.00;;;;;;;;;;4954716;29;20054;-88
2022/07/27 00:33:59;;;;;;;0.00;0.00;;;;;;;;;;4954345;29;20133;-86
2022/07/27 00:36:25;;;;;;;0.00;0.00;;;;;;;;;;4954617;29;20148;-87
2022/07/27 00:38:51;;;;;;;0.00;0.00;;;;;;;;;;4954686;29;20054;-88
2022/07/27 00:41:17;;;;;;;0.00;0.00;;;;;;;;;;4957732;28;20046;-86
2022/07/27 00:43:50;;;;;;;0.00;0.00;;;;;;;;;;4954457;28;20121;-87
2022/07/27 00:46:16;;;;;;;0.00;0.00;;;;;;;;;;4954463;29;20098;-86
2022/07/27 00:48:42;;;;;;;0.00;0.00;;;;;;;;;;4953975;29;20117;-86
2022/07/27 00:51:08;;;;;;;0.00;0.00;;;;;;;;;;4954048;29;20462;-85
2022/07/27 00:53:34;;;;;;;0.00;0.00;;;;;;;;;;4953939;29;20046;-87
2022/07/27 00:56:00;;;;;;;0.00;0.00;;;;;;;;;;4953785;29;20090;-85
2022/07/27 00:58:26;;;;;;;0.00;0.00;;;;;;;;;;4954058;29;20121;-87
2022/07/27 01:00:52;;;;;;;0.00;0.00;;;;;;;;;;4953151;29;20113;-86
2022/07/27 01:03:18;;;;;;;0.00;0.00;;;;;;;;;;4953150;29;20045;-86
2022/07/27 01:05:44;;;;;;;0.00;0.00;;;;;;;;;;4952918;29;20043;-87
2022/07/27 01:08:12;;;;;;;0.00;0.00;;;;;;;;;;4953651;29;20130;-86
2022/07/27 01:10:38;;;;;;;0.00;0.00;;;;;;;;;;4953666;29;20143;-87
2022/07/27 01:13:04;;;;;;;0.00;0.00;;;;;;;;;;4953397;29;20402;-86
2022/07/27 01:15:31;;;;;;;0.00;0.00;;;;;;;;;;4953174;29;20047;-86
2022/07/27 01:17:57;;;;;;;0.00;0.00;;;;;;;;;;4953602;29;20206;-89
2022/07/27 01:20:23;;;;;;;0.00;0.00;;;;;;;;;;4954031;29;20453;-88
2022/07/27 01:22:49;;;;;;;0.00;0.00;;;;;;;;;;4953344;29;20043;-86
2022/07/27 01:25:15;;;;;;;0.00;0.00;;;;;;;;;;4953110;29;20074;-87
2022/07/27 01:27:41;;;;;;;0.00;0.00;;;;;;;;;;4952878;29;20501;-86
2022/07/27 01:30:25;;;;;;;0.00;0.00;;;;;;;;;;4952827;29;20094;-86
2022/07/27 01:32:51;;;;;;;0.00;0.00;;;;;;;;;;4953013;29;20043;-87
2022/07/27 01:35:17;;;;;;;0.00;0.00;;;;;;;;;;4952897;29;20130;-89
2022/07/27 01:37:43;;;;;;;0.00;0.00;;;;;;;;;;4953126;29;20055;-87
2022/07/27 01:40:10;;;;;;;0.00;0.00;;;;;;;;;;4953019;29;20086;-86
2022/07/27 01:42:36;;;;;;;0.00;0.00;;;;;;;;;;4952406;29;20046;-88
2022/07/27 01:45:02;;;;;;;0.00;0.00;;;;;;;;;;4953075;29;20039;-87
2022/07/27 01:47:28;;;;;;;0.00;0.00;;;;;;;;;;4953098;29;20126;-89
2022/07/27 01:49:54;;;;;;;0.00;0.00;;;;;;;;;;4953463;29;20054;-88
2022/07/27 01:52:20;;;;;;;0.00;0.00;;;;;;;;;;4953290;29;20043;-87
2022/07/27 01:54:45;;;;;;;0.00;0.00;;;;;;;;;;4954504;28;20043;-87
2022/07/27 01:57:11;;;;;;;0.00;0.00;;;;;;;;;;4956421;29;20553;-88
2022/07/27 02:01:14;;;;;;;;;;;;;;;;;;5111748;27;20442;-89
2022/07/27 02:03:40;;;;;;;0.00;0.00;;;;;;;;;;5110166;28;20323;-86
2022/07/27 02:06:06;;;;;;;0.00;0.00;;;;;;;;;;5110266;28;20110;-87
2022/07/27 02:08:33;;;;;;;0.00;0.00;;;;;;;;;;5109973;28;20051;-88
2022/07/27 02:13:48;;;;;;;0.00;0.00;;;;;;;;;;5118761;28;20048;-85
2022/07/27 02:16:15;;;;;;;0.00;0.00;;;;;;;;;;5112517;28;20482;-86
2022/07/27 02:18:41;;;;;;;0.00;0.00;;;;;;;;;;5109783;28;20504;-87
2022/07/27 02:21:07;;;;;;;0.00;0.00;;;;;;;;;;5109536;28;20039;-87
2022/07/27 02:23:34;;;;;;;0.00;0.00;;;;;;;;;;5109586;28;20097;-87
2022/07/27 02:26:00;;;;;;;0.00;0.00;;;;;;;;;;5109612;28;20039;-88
2022/07/27 02:28:26;;;;;;;0.00;0.00;;;;;;;;;;5109527;28;20036;-86
2022/07/27 02:30:52;;;;;;;0.00;0.00;;;;;;;;;;5109296;28;20039;-87
2022/07/27 02:33:18;;;;;;;0.00;0.00;;;;;;;;;;5109261;28;20162;-88
2022/07/27 02:35:44;;;;;;;0.00;0.00;;;;;;;;;;5092512;28;20048;-88
2022/07/27 02:38:10;;;;;;;0.00;0.00;;;;;;;;;;5109099;28;20498;-86
2022/07/27 02:40:36;;;;;;;0.00;0.00;;;;;;;;;;5108624;28;20055;-85
2022/07/27 02:43:02;;;;;;;0.00;0.00;;;;;;;;;;5108390;28;20048;-85
2022/07/27 02:45:28;;;;;;;0.00;0.00;;;;;;;;;;5108432;28;20084;-86
2022/07/27 02:47:54;;;;;;;0.00;0.00;;;;;;;;;;5108516;28;20035;-86
2022/07/27 02:50:20;;;;;;;0.00;0.00;;;;;;;;;;5108369;28;20458;-85
2022/07/27 02:52:46;;;;;;;0.00;0.00;;;;;;;;;;5091549;28;20044;-86
2022/07/27 02:55:12;;;;;;;0.00;0.00;;;;;;;;;;5091419;28;20100;-87
2022/07/27 02:57:39;;;;;;;0.00;0.00;;;;;;;;;;5108577;28;20166;-86
2022/07/27 03:00:06;;;;;;;0.00;0.00;;;;;;;;;;5108206;28;20091;-86
2022/07/27 03:02:32;;;;;;;0.00;0.00;;;;;;;;;;5108294;28;20195;-87
2022/07/27 03:04:58;;;;;;;0.00;0.00;;;;;;;;;;5108558;28;20206;-85
2022/07/27 03:07:24;;;;;;;0.00;0.00;;;;;;;;;;5108144;28;20088;-87
2022/07/27 03:09:50;;;;;;;0.00;0.00;;;;;;;;;;5108253;28;20044;-85
2022/07/27 03:12:16;;;;;;;0.00;0.00;;;;;;;;;;5079610;28;20204;-86
2022/07/27 03:14:42;;;;;;;0.00;0.00;;;;;;;;;;5094290;28;20651;-86
2022/07/27 03:17:08;;;;;;;0.00;0.00;;;;;;;;;;5094263;28;20044;-85
2022/07/27 03:19:34;;;;;;;0.00;0.00;;;;;;;;;;5077097;28;20047;-86
2022/07/27 03:22:00;;;;;;;0.00;0.00;;;;;;;;;;5077607;28;20122;-85
2022/07/27 03:24:26;;;;;;;0.00;0.00;;;;;;;;;;5094358;28;20046;-85
2022/07/27 03:26:52;;;;;;;0.00;0.00;;;;;;;;;;5094704;28;20210;-87
2022/07/27 03:29:18;;;;;;;0.00;0.00;;;;;;;;;;5094532;28;20101;-86
2022/07/27 03:31:44;;;;;;;0.00;0.00;;;;;;;;;;5094697;28;20089;-85
2022/07/27 03:34:10;;;;;;;0.00;0.00;;;;;;;;;;5094462;28;20123;-86
2022/07/27 03:36:36;;;;;;;0.00;0.00;;;;;;;;;;5094158;28;20174;-86
2022/07/27 03:39:02;;;;;;;0.00;0.00;;;;;;;;;;5076670;28;20047;-86
2022/07/27 03:41:28;;;;;;;0.00;0.00;;;;;;;;;;5093475;28;20032;-85
2022/07/27 03:43:54;;;;;;;0.00;0.00;;;;;;;;;;5076617;28;20443;-85
2022/07/27 03:46:20;;;;;;;0.00;0.00;;;;;;;;;;5076545;28;20035;-87
2022/07/27 03:48:46;;;;;;;0.00;0.00;;;;;;;;;;5093439;28;20043;-85
2022/07/27 03:51:12;;;;;;;0.00;0.00;;;;;;;;;;5093457;28;20138;-85
2022/07/27 03:53:38;;;;;;;0.00;0.00;;;;;;;;;;5093456;28;20471;-87
2022/07/27 03:56:04;;;;;;;0.00;0.00;;;;;;;;;;5093680;28;20184;-86
2022/07/27 03:58:30;;;;;;;0.00;0.00;;;;;;;;;;5076662;28;20082;-86
2022/07/27 04:00:56;;;;;;;0.00;0.00;;;;;;;;;;5093471;28;20096;-87
2022/07/27 04:03:22;;;;;;;0.00;0.00;;;;;;;;;;5076865;28;20086;-85
2022/07/27 04:05:48;;;;;;;0.00;0.00;;;;;;;;;;5093658;28;20036;-86
2022/07/27 04:08:16;;;;;;;0.00;0.00;;;;;;;;;;5093572;28;20064;-87
2022/07/27 04:10:42;;;;;;;0.00;0.00;;;;;;;;;;5093577;28;20051;-87
2022/07/27 04:13:10;;;;;;;0.00;0.00;;;;;;;;;;5093636;28;20044;-87
2022/07/27 04:15:36;;;;;;;0.00;0.00;;;;;;;;;;5076430;28;20082;-88
2022/07/27 04:18:02;;;;;;;0.00;0.00;;;;;;;;;;5076226;28;20076;-88
2022/07/27 04:20:28;;;;;;;0.00;0.00;;;;;;;;;;5076149;28;20044;-87
2022/07/27 04:22:54;;;;;;;0.00;0.00;;;;;;;;;;5092106;28;20457;-87
2022/07/27 04:25:20;;;;;;;0.00;0.00;;;;;;;;;;5098327;28;20123;-88
2022/07/27 04:27:47;;;;;;;0.00;0.00;;;;;;;;;;5076021;28;20048;-85
2022/07/27 04:30:13;;;;;;;0.00;0.00;;;;;;;;;;5075636;28;20036;-87
2022/07/27 04:32:39;;;;;;;0.00;0.00;;;;;;;;;;5075674;28;20036;-86
2022/07/27 04:35:06;;;;;;;0.00;0.00;;;;;;;;;;5092682;28;20386;-85
2022/07/27 04:37:32;;;;;;;0.00;0.00;;;;;;;;;;5092388;28;20036;-86
2022/07/27 04:39:59;;;;;;;0.00;0.00;;;;;;;;;;5092287;28;20040;-85
2022/07/27 04:42:25;;;;;;;0.00;0.00;;;;;;;;;;5092466;28;20078;-85
2022/07/27 04:44:51;;;;;;;0.00;0.00;;;;;;;;;;5092241;28;20487;-86
2022/07/27 04:47:17;;;;;;;0.00;0.00;;;;;;;;;;5075983;28;20073;-86
2022/07/27 04:49:43;;;;;;;0.00;0.00;;;;;;;;;;5092367;28;20097;-86
2022/07/27 04:52:10;;;;;;;0.00;0.00;;;;;;;;;;5093129;28;20040;-85
2022/07/27 04:54:36;;;;;;;0.00;0.00;;;;;;;;;;5091912;28;20119;-86
2022/07/27 04:57:01;;;;;;;0.00;0.00;;;;;;;;;;5092026;28;20086;-86
2022/07/27 04:59:28;;;;;;;0.00;0.00;;;;;;;;;;5091757;28;20131;-86
2022/07/27 05:01:53;;;;;;;0.00;0.00;;;;;;;;;;5092072;28;20532;-87
2022/07/27 05:04:19;;;;;;;0.00;0.00;;;;;;;;;;5091959;28;20119;-85
2022/07/27 05:06:45;;;;;;;0.00;0.00;;;;;;;;;;5092162;28;20040;-86
2022/07/27 05:09:12;;;;;;;0.00;0.00;;;;;;;;;;5075048;28;20041;-87
2022/07/27 05:11:38;;;;;;;0.00;0.00;;;;;;;;;;5074762;28;20123;-86
2022/07/27 05:14:04;;;;;;;0.00;0.00;;;;;;;;;;5091574;28;20118;-86
2022/07/27 05:16:30;;;;;;;0.00;0.00;;;;;;;;;;5091673;28;20040;-86
2022/07/27 05:18:56;;;;;;;0.00;0.00;;;;;;;;;;5074629;28;20044;-87
2022/07/27 05:21:23;;;;;;;0.00;0.00;;;;;;;;;;5074855;28;20047;-86
2022/07/27 05:23:48;;;;;;;0.00;0.00;;;;;;;;;;5092028;28;20395;-85
2022/07/27 05:26:14;;;;;;;0.00;0.00;;;;;;;;;;5074718;28;20042;-85
2022/07/27 05:28:40;;;;;;;0.00;0.00;;;;;;;;;;5091336;28;20453;-86
2022/07/27 05:31:06;;;;;;;0.00;0.00;;;;;;;;;;5091582;28;20147;-86
2022/07/27 05:33:33;;;;;;;0.00;0.00;;;;;;;;;;5091310;28;20047;-87
2022/07/27 05:35:59;;;;;;;0.00;0.00;;;;;;;;;;5092123;28;20491;-87
2022/07/27 05:38:25;;;;;;;0.00;0.00;;;;;;;;;;5091275;28;20077;-86
2022/07/27 05:40:52;;;;;;;0.00;0.00;;;;;;;;;;5091516;28;20119;-85
2022/07/27 05:43:18;;;;;;;0.00;0.00;;;;;;;;;;5074241;28;20122;-85
2022/07/27 05:45:43;;;;;;;0.00;0.00;;;;;;;;;;5091456;28;20040;-87
2022/07/27 05:48:09;;;;;;;0.00;0.00;;;;;;;;;;5092194;28;20043;-87
2022/07/27 05:50:36;;;;;;;0.00;0.00;;;;;;;;;;5091313;28;20123;-86
2022/07/27 05:53:02;;;;;;;0.00;0.00;;;;;;;;;;5091391;28;20044;-86
2022/07/27 05:55:28;;;;;;;0.00;0.00;;;;;;;;;;5091555;28;20044;-86
2022/07/27 05:57:54;;;;;;;0.00;0.00;;;;;;;;;;5088226;28;20040;-84
2022/07/27 06:00:20;;;;;;;0.00;0.00;;;;;;;;;;5070273;28;20216;-85
2022/07/27 06:02:46;;;;;;;0.00;0.00;;;;;;;;;;5070548;28;20302;-84
2022/07/27 06:05:12;;;;;;;0.00;0.00;;;;;;;;;;5070227;28;20189;-84
2022/07/27 06:10:23;;;;;;;0.00;0.00;;;;;;;;;;5088165;28;20048;-83
2022/07/27 06:12:49;;;;;;;0.00;0.00;;;;;;;;;;5070379;28;20093;-83
2022/07/27 06:15:16;;;;;;;0.00;0.00;;;;;;;;;;5070451;28;20102;-83
2022/07/27 06:17:44;;;;;;;0.00;0.00;;;;;;;;;;5053759;28;20132;-83
2022/07/27 06:20:10;;;;;;;0.00;0.00;;;;;;;;;;5070020;28;20056;-83
2022/07/27 06:22:49;;;;;;;0.00;0.00;;;;;;;;;;5074054;28;20051;-84
2022/07/27 06:25:16;;;;;;;0.00;0.00;;;;;;;;;;5090463;28;20485;-83
2022/07/27 06:27:42;;;;;;;0.00;0.00;;;;;;;;;;5090782;28;20437;-83
2022/07/27 06:30:08;;;;;;;0.00;0.00;;;;;;;;;;5073746;28;20044;-83
2022/07/27 06:32:34;;;;;;;0.00;0.00;;;;;;;;;;5081984;28;20051;-83
2022/07/27 06:35:00;;;;;;;0.00;0.00;;;;;;;;;;5074118;28;20036;-83
2022/07/27 06:37:28;;;;;;;0.00;0.00;;;;;;;;;;5090377;28;20044;-83
2022/07/27 06:39:54;;;;;;;0.00;0.00;;;;;;;;;;5090153;28;20141;-83
2022/07/27 06:42:20;;;;;;;0.00;0.00;;;;;;;;;;5090316;28;20491;-83
2022/07/27 06:44:46;;;;;;;0.00;0.00;;;;;;;;;;5073095;28;20050;-83
2022/07/27 06:47:12;;;;;;;0.00;0.00;;;;;;;;;;5075630;28;20367;-84
2022/07/27 06:49:38;;;;;;;0.00;0.00;;;;;;;;;;5086359;28;20048;-83
2022/07/27 06:52:06;;;;;;;0.00;0.00;;;;;;;;;;5073922;28;20053;-83
2022/07/27 06:54:32;;;;;;;0.00;0.00;;;;;;;;;;5073577;28;20403;-83
2022/07/27 06:56:58;;;;;;;0.00;0.00;;;;;;;;;;5093549;28;20475;-84
2022/07/27 06:59:25;;;;;;;0.00;0.00;;;;;;;;;;5076303;28;20058;-84
2022/07/27 07:01:51;;;;;;;0.00;0.00;;;;;;;;;;5093637;28;20054;-83
2022/07/27 07:04:17;;;;;;;0.00;0.00;;;;;;;;;;5093876;28;20123;-84
2022/07/27 07:06:43;;;;;;;0.00;0.00;;;;;;;;;;5093820;28;20040;-83
2022/07/27 07:09:09;;;;;;;0.00;0.00;;;;;;;;;;5093559;28;20069;-84
2022/07/27 07:11:36;;;;;;;0.00;0.00;;;;;;;;;;5077248;28;20036;-84
2022/07/27 07:14:02;;;;;;;0.00;0.00;;;;;;;;;;5088884;28;20399;-84
2022/07/27 07:16:28;;;;;;;0.00;0.00;;;;;;;;;;5093614;28;20039;-84
2022/07/27 07:18:54;;;;;;;0.00;0.00;;;;;;;;;;5093837;28;20040;-84
2022/07/27 07:21:20;;;;;;;0.00;0.00;;;;;;;;;;5076774;28;20150;-84
2022/07/27 07:23:46;;;;;;;0.00;0.00;;;;;;;;;;5076912;28;20123;-84
2022/07/27 07:26:12;;;;;;;0.00;0.00;;;;;;;;;;5093608;28;20111;-87
2022/07/27 07:28:38;;;;;;;0.00;0.00;;;;;;;;;;5093563;28;20463;-86
2022/07/27 07:31:04;;;;;;;0.00;0.00;;;;;;;;;;5094315;28;20076;-85
2022/07/27 07:33:30;;;;;;;0.00;0.00;;;;;;;;;;5095679;28;20184;-85
2022/07/27 07:35:56;;;;;;;0.00;0.00;;;;;;;;;;5094770;28;20040;-85
2022/07/27 07:38:22;;;;;;;0.00;0.00;;;;;;;;;;5078400;28;20043;-86
2022/07/27 07:40:48;;;;;;;0.00;0.00;;;;;;;;;;5094131;28;20433;-85
2022/07/27 07:43:14;;;;;;;0.00;0.00;;;;;;;;;;5093461;28;20472;-85
2022/07/27 07:45:41;;;;;;;0.00;0.00;;;;;;;;;;5093299;28;20050;-85
2022/07/27 07:48:09;;;;;;;0.00;0.00;;;;;;;;;;5076450;28;20132;-85
2022/07/27 07:50:35;;;;;;;0.00;0.00;;;;;;;;;;5076335;28;20040;-83
2022/07/27 07:53:01;;;;;;;0.00;0.00;;;;;;;;;;5093416;28;20376;-85
2022/07/27 07:55:27;;;;;;;0.00;0.00;;;;;;;;;;5093025;28;20048;-84
2022/07/27 07:57:54;;;;;;;0.00;0.00;;;;;;;;;;5093201;28;20122;-85
2022/07/27 08:00:20;;;;;;;0.00;0.00;;;;;;;;;;5092627;28;20100;-82
2022/07/27 08:02:47;;;;;;;0.00;0.00;;;;;;;;;;5076163;28;20071;-82
2022/07/27 08:05:13;;;;;;;0.55;0.55;;;;;;;;;;5092682;28;20050;-82
2022/07/27 08:07:40;;;;;;;0.00;0.00;;;;;;;;;;5092827;28;20032;-82
2022/07/27 08:10:06;;;;;;;0.00;0.00;;;;;;;;;;5092656;28;20468;-82
2022/07/27 08:12:33;;;;;;;0.00;0.00;;;;;;;;;;5076039;28;20395;-81
2022/07/27 08:14:59;;;;;;;0.00;0.00;;;;;;;;;;5092613;28;20044;-81
2022/07/27 08:17:25;;;;;;;0.00;0.00;;;;;;;;;;5092817;28;20395;-81
2022/07/27 08:19:50;;;;;;;0.00;0.00;;;;;;;;;;5092313;28;20104;-83
2022/07/27 08:22:16;;;;;;;0.00;0.00;;;;;;;;;;5092944;28;20043;-82
2022/07/27 08:24:42;;;;;;;0.00;0.00;;;;;;;;;;5075702;28;20127;-83
2022/07/27 08:27:09;;;;;;;0.00;0.00;;;;;;;;;;5092270;28;20036;-83
2022/07/27 08:29:35;;;;;;;0.00;0.00;;;;;;;;;;5091914;28;20108;-84
2022/07/27 08:32:01;;;;;;;0.00;0.00;;;;;;;;;;5075229;28;20036;-81
2022/07/27 08:34:27;;;;;;;0.00;0.00;;;;;;;;;;5075511;28;20067;-81
2022/07/27 08:36:53;;;;;;;0.00;0.00;;;;;;;;;;5092177;28;20135;-81
2022/07/27 08:39:19;;;;;;;0.00;0.00;;;;;;;;;;5092490;28;20350;-82
2022/07/27 08:41:45;;;;;;;0.00;0.00;;;;;;;;;;5091982;28;20577;-83
2022/07/27 08:44:13;;;;;;;0.00;0.00;;;;;;;;;;5092154;28;20150;-83
2022/07/27 08:46:39;;;;;;;0.00;0.00;;;;;;;;;;5092313;28;20090;-82
2022/07/27 08:49:06;;;;;;;0.00;0.00;;;;;;;;;;5075092;28;20046;-83
2022/07/27 08:51:33;;;;;;;0.00;0.00;;;;;;;;;;5091861;28;20043;-82
2022/07/27 08:54:00;;;;;;;0.00;0.00;;;;;;;;;;5091958;28;20032;-82
2022/07/27 08:56:26;;;;;;;0.00;0.00;;;;;;;;;;5091752;28;20050;-82
2022/07/27 08:58:52;;;;;;;0.00;0.00;;;;;;;;;;5091666;28;20044;-82
2022/07/27 09:01:18;;;;;;;0.00;0.00;;;;;;;;;;5091836;28;20036;-82
2022/07/27 09:03:44;;;;;;;0.00;0.00;;;;;;;;;;5091851;28;20072;-82
2022/07/27 09:06:10;;;;;;;0.00;0.00;;;;;;;;;;5074885;28;20484;-82
2022/07/27 09:08:40;;;;;;;0.00;0.00;;;;;;;;;;5074270;28;20054;-82
2022/07/27 09:11:14;;;;;;;0.00;0.00;;;;;;;;;;5074652;28;20040;-82
2022/07/27 09:13:40;;;;;;;0.00;0.00;;;;;;;;;;5091732;28;20379;-82
2022/07/27 09:16:08;;;;;;;0.00;0.00;;;;;;;;;;5073614;28;20047;-83
2022/07/27 09:18:37;;;;;;;0.00;0.00;;;;;;;;;;5091566;28;20044;-83
2022/07/27 09:21:16;;;;;;;0.00;0.00;;;;;;;;;;5091160;28;20082;-84
2022/07/27 09:23:44;;;;;;;0.00;0.00;;;;;;;;;;5091514;28;20188;-83
2022/07/27 09:26:11;;;;;;;0.00;0.00;;;;;;;;;;5091297;28;20118;-83
2022/07/27 09:28:38;;;;;;;0.00;0.00;;;;;;;;;;5091245;28;20052;-84
2022/07/27 09:31:11;;;;;;;0.00;0.00;;;;;;;;;;5091113;28;20486;-84
2022/07/27 09:33:41;;;;;;;0.00;0.00;;;;;;;;;;5091464;28;20566;-84
2022/07/27 09:36:07;;;;;;;0.00;0.00;;;;;;;;;;5091087;28;20040;-84
2022/07/27 09:38:33;;;;;;;0.00;0.00;;;;;;;;;;5091174;28;20132;-84
2022/07/27 09:41:00;;;;;;;0.00;0.00;;;;;;;;;;5074293;28;20086;-83
2022/07/27 09:43:27;;;;;;;0.00;0.00;;;;;;;;;;5091189;28;20107;-84
2022/07/27 09:45:53;;;;;;;0.00;0.00;;;;;;;;;;5074076;28;20032;-83
2022/07/27 09:48:20;;;;;;;0.00;0.00;;;;;;;;;;5091102;28;20042;-83
2022/07/27 09:50:58;;;;;;;0.00;0.00;;;;;;;;;;5075650;28;20147;-82
2022/07/27 09:53:31;;;;;;;0.00;0.00;;;;;;;;;;5054413;28;20095;-83
2022/07/27 09:56:06;;;;;;;0.00;0.00;;;;;;;;;;5053957;28;20048;-83
2022/07/27 09:58:49;;;;;;;0.00;0.00;;;;;;;;;;5070743;28;20040;-82
2022/07/27 10:01:20;;;;;;;0.00;0.00;;;;;;;;;;5070525;28;20482;-82
2022/07/27 10:03:47;;;;;;;0.00;0.00;;;;;;;;;;5070847;28;20041;-82
2022/07/27 10:06:13;;;;;;;0.00;0.00;;;;;;;;;;5070593;28;20098;-82
2022/07/27 10:08:40;;;;;;;0.00;0.00;;;;;;;;;;5070642;28;20048;-82
2022/07/27 10:11:06;;;;;;;0.00;0.00;;;;;;;;;;5070446;28;20109;-82
2022/07/27 10:13:33;;;;;;;0.00;0.00;;;;;;;;;;5054098;28;20044;-82
2022/07/27 10:15:59;;;;;;;0.00;0.00;;;;;;;;;;5070602;28;20044;-82
2022/07/27 10:18:32;;;;;;;0.00;0.00;;;;;;;;;;5069672;28;20044;-85
2022/07/27 10:21:03;;;;;;;0.00;0.00;;;;;;;;;;5070890;28;20395;-84
2022/07/27 10:23:31;;;;;;;0.00;0.00;;;;;;;;;;5057884;28;20040;-82
2022/07/27 10:26:16;;;;;;;0.00;0.00;;;;;;;;;;5057714;28;20045;-83
2022/07/27 10:28:52;;;;;;;0.00;0.00;;;;;;;;;;5074580;28;20445;-82
2022/07/27 10:31:17;;;;;;;;;;;;;;;;;;5074723;28;20471;-83
2022/07/27 10:33:45;;;;;;;0.00;0.00;;;;;;;;;;5074941;28;19940;-83
2022/07/27 10:36:23;;;;;;;0.00;0.00;;;;;;;;;;5074200;28;20098;-83
2022/07/27 10:38:50;;;;;;;0.00;0.00;;;;;;;;;;5074641;28;20051;-82
2022/07/27 10:41:21;;;;;;;0.00;0.00;;;;;;;;;;5072957;28;20041;-83
2022/07/27 10:43:49;;;;;;;0.30;0.17;;;;;;;;;;5057545;28;20463;-82
2022/07/27 10:46:19;;;;;;;0.00;0.00;;;;;;;;;;5057423;28;20119;-83
2022/07/27 10:48:45;;;;;;;0.00;0.00;;;;;;;;;;5074089;28;20036;-83
2022/07/27 10:51:12;;;;;;;0.00;0.00;;;;;;;;;;5074211;28;20604;-82
2022/07/27 10:53:41;;;;;;;0.00;0.00;;;;;;;;;;5057605;28;20127;-82
2022/07/27 10:56:08;;;;;;;0.00;0.00;;;;;;;;;;5057451;28;20101;-83
2022/07/27 10:58:34;;;;;;;0.00;0.00;;;;;;;;;;5057003;28;20051;-82
2022/07/27 11:01:06;;;;;;;0.00;0.00;;;;;;;;;;5057297;28;20049;-82
2022/07/27 11:03:33;;;;;;;0.00;0.00;;;;;;;;;;5073791;28;20093;-83
2022/07/27 11:06:00;;;;;;;0.10;0.10;;;;;;;;;;5074190;28;20055;-82
2022/07/27 11:08:31;;;;;;;0.00;0.00;;;;;;;;;;5056995;28;20043;-82
2022/07/27 11:10:57;;;;;;;0.00;0.00;;;;;;;;;;5074008;28;20048;-83
2022/07/27 11:13:24;;;;;;;0.00;0.00;;;;;;;;;;5073615;28;20423;-83
2022/07/27 11:16:02;;;;;;;0.00;0.00;;;;;;;;;;5073889;28;20098;-82
2022/07/27 11:18:30;;;;;;;0.00;0.00;;;;;;;;;;5073631;28;20048;-82
2022/07/27 11:21:14;;;;;;;0.00;0.00;;;;;;;;;;5073869;28;20403;-82
2022/07/27 11:23:40;;;;;;;0.00;0.00;;;;;;;;;;5074103;28;20110;-82
2022/07/27 11:26:06;;;;;;;0.00;0.00;;;;;;;;;;5073736;28;20456;-82
2022/07/27 11:28:33;;;;;;;0.00;0.00;;;;;;;;;;5055481;28;20070;-84
2022/07/27 11:30:59;;;;;;;0.00;0.00;;;;;;;;;;5073615;28;20131;-83
2022/07/27 11:33:26;;;;;;;0.00;0.00;;;;;;;;;;5056122;28;20047;-83
2022/07/27 11:35:53;;;;;;;0.00;0.00;;;;;;;;;;5073479;28;20048;-83
2022/07/27 11:38:19;;;;;;;0.00;0.00;;;;;;;;;;5073162;28;20384;-83
2022/07/27 11:40:46;;;;;;;0.00;0.00;;;;;;;;;;5073494;28;20438;-83
2022/07/27 11:43:12;;;;;;;0.00;0.00;;;;;;;;;;5073678;28;20040;-82
2022/07/27 11:45:40;;;;;;;0.00;0.00;;;;;;;;;;5073799;28;20152;-82
2022/07/27 11:48:09;;;;;;;0.00;0.00;;;;;;;;;;5056890;28;20553;-83
2022/07/27 11:50:35;;;;;;;0.00;0.00;;;;;;;;;;5073131;28;20044;-83
2022/07/27 11:53:01;;;;;;;0.00;0.00;;;;;;;;;;5056232;28;20395;-83
2022/07/27 11:55:27;;;;;;;0.00;0.00;;;;;;;;;;5056623;28;20044;-82
2022/07/27 11:58:01;;;;;;;0.00;0.00;;;;;;;;;;5072947;28;20044;-83
2022/07/27 12:00:39;;;;;;;0.00;0.00;;;;;;;;;;5072740;28;20083;-83
2022/07/27 12:03:05;;;;;;;0.00;0.00;;;;;;;;;;5072839;28;20044;-83
2022/07/27 12:05:31;;;;;;;0.00;0.00;;;;;;;;;;5056183;28;20040;-83
2022/07/27 12:07:57;;;;;;;0.00;0.00;;;;;;;;;;5072542;28;20391;-83
2022/07/27 12:10:23;;;;;;;0.00;0.00;;;;;;;;;;5056032;28;20048;-83
2022/07/27 12:12:49;;;;;;;0.00;0.00;;;;;;;;;;5072507;28;20045;-82
2022/07/27 12:15:16;;;;;;;0.00;0.00;;;;;;;;;;5055996;28;20040;-83
2022/07/27 12:17:43;;;;;;;0.00;0.00;;;;;;;;;;5072405;28;20058;-82
2022/07/27 12:20:10;;;;;;;0.00;0.00;;;;;;;;;;5055640;28;20083;-82
2022/07/27 12:22:42;;;;;;;0.00;0.00;;;;;;;;;;5072541;28;20051;-83
2022/07/27 12:25:08;;;;;;;0.00;0.00;;;;;;;;;;5055959;28;20044;-83
2022/07/27 12:27:34;;;;;;;0.00;0.00;;;;;;;;;;5072332;28;20032;-83
2022/07/27 12:30:09;;;;;;;0.00;0.00;;;;;;;;;;5071052;28;20123;-84
2022/07/27 12:32:44;;;;;;;0.00;0.00;;;;;;;;;;5071898;28;20048;-83
2022/07/27 12:35:18;;;;;;;0.00;0.00;;;;;;;;;;5072401;28;20051;-83
2022/07/27 12:37:44;;;;;;;0.00;0.00;;;;;;;;;;5071837;28;20048;-82
2022/07/27 12:40:14;;;;;;;0.00;0.00;;;;;;;;;;5071978;28;20044;-83
2022/07/27 12:42:40;;;;;;;0.00;0.00;;;;;;;;;;5071909;28;20040;-83
2022/07/27 12:45:11;;;;;;;0.00;0.00;;;;;;;;;;5070982;28;20432;-83
2022/07/27 12:47:39;;;;;;;0.00;0.00;;;;;;;;;;5071950;28;20124;-83
2022/07/27 12:50:13;;;;;;;0.00;0.00;;;;;;;;;;5071783;28;20044;-83
2022/07/27 12:52:57;;;;;;;0.00;0.00;;;;;;;;;;5071448;28;20523;-83
2022/07/27 12:55:23;;;;;;;0.00;0.00;;;;;;;;;;5071810;28;20040;-83
2022/07/27 12:57:50;;;;;;;0.00;0.00;;;;;;;;;;5071323;28;20067;-83
2022/07/27 13:00:17;;;;;;;0.00;0.00;;;;;;;;;;5071214;28;20064;-82
2022/07/27 13:02:44;;;;;;;0.00;0.00;;;;;;;;;;5070160;28;20052;-84
2022/07/27 13:05:10;;;;;;;0.00;0.00;;;;;;;;;;5071446;28;20116;-83
2022/07/27 13:07:37;;;;;;;0.00;0.00;;;;;;;;;;5054717;28;20072;-84
2022/07/27 13:10:05;;;;;;;0.00;0.00;;;;;;;;;;5071407;28;20388;-83
2022/07/27 13:12:31;;;;;;;0.00;0.00;;;;;;;;;;5071468;28;20123;-83
2022/07/27 13:14:57;;;;;;;0.00;0.00;;;;;;;;;;5054534;28;20196;-83
2022/07/27 13:17:23;;;;;;;0.00;0.00;;;;;;;;;;5071679;28;20192;-83
2022/07/27 13:19:49;;;;;;;0.00;0.00;;;;;;;;;;5070952;28;20041;-83
2022/07/27 13:22:15;;;;;;;0.00;0.00;;;;;;;;;;5071387;28;20075;-83
2022/07/27 13:24:41;;;;;;;0.00;0.00;;;;;;;;;;5071022;28;20452;-84
2022/07/27 13:27:07;;;;;;;0.00;0.00;;;;;;;;;;5071170;28;20168;-82
2022/07/27 13:29:33;;;;;;;0.00;0.00;;;;;;;;;;5070907;28;20044;-83
2022/07/27 13:31:59;;;;;;;0.00;0.00;;;;;;;;;;5071062;28;20503;-84
2022/07/27 13:34:25;;;;;;;0.00;0.00;;;;;;;;;;5054235;28;20040;-83
2022/07/27 13:36:51;;;;;;;0.00;0.00;;;;;;;;;;5054268;28;20040;-82
2022/07/27 13:39:17;;;;;;;0.00;0.00;;;;;;;;;;5054247;28;20201;-82
2022/07/27 13:41:50;;;;;;;0.00;0.00;;;;;;;;;;5070900;28;20546;-82
2022/07/27 13:44:16;;;;;;;0.00;0.00;;;;;;;;;;5071113;28;20055;-83
2022/07/27 13:46:42;;;;;;;0.00;0.00;;;;;;;;;;5071040;28;20036;-83
2022/07/27 13:49:08;;;;;;;0.00;0.00;;;;;;;;;;5053887;28;20040;-83
2022/07/27 13:51:34;;;;;;;0.00;0.00;;;;;;;;;;5070996;28;20407;-84
2022/07/27 13:54:00;;;;;;;0.00;0.00;;;;;;;;;;5069395;28;20036;-83
2022/07/27 13:56:28;;;;;;;0.00;0.00;;;;;;;;;;5070656;28;20044;-82
2022/07/27 13:58:55;;;;;;;0.00;0.00;;;;;;;;;;5070226;28;20051;-82
2022/07/27 14:01:21;;;;;;;0.00;0.00;;;;;;;;;;5070920;28;20131;-83
2022/07/27 14:03:47;;;;;;;0.00;0.00;;;;;;;;;;5070512;28;20044;-83
2022/07/27 14:06:13;;;;;;;0.00;0.00;;;;;;;;;;5070749;28;20037;-83
2022/07/27 14:08:40;;;;;;;0.00;0.00;;;;;;;;;;5070595;28;20489;-83
2022/07/27 14:11:06;;;;;;;0.00;0.00;;;;;;;;;;5070662;28;20041;-82
2022/07/27 14:13:32;;;;;;;0.00;0.00;;;;;;;;;;5070504;28;20040;-82
2022/07/27 14:15:59;;;;;;;0.00;0.00;;;;;;;;;;5054272;28;20043;-83
2022/07/27 14:18:27;;;;;;;0.00;0.00;;;;;;;;;;5070345;28;20048;-82
2022/07/27 14:20:53;;;;;;;0.00;0.00;;;;;;;;;;5070613;28;20040;-83
2022/07/27 14:23:19;;;;;;;0.00;0.00;;;;;;;;;;5070507;28;20547;-82
2022/07/27 14:25:45;;;;;;;0.00;0.00;;;;;;;;;;5070441;28;20112;-82
2022/07/27 14:28:11;;;;;;;0.00;0.00;;;;;;;;;;5053842;28;20083;-83
2022/07/27 14:30:37;;;;;;;0.00;0.00;;;;;;;;;;5070241;28;20075;-83
2022/07/27 14:33:03;;;;;;;0.00;0.00;;;;;;;;;;5070530;28;20054;-82
2022/07/27 14:35:29;;;;;;;0.00;0.00;;;;;;;;;;5070180;28;20053;-83
2022/07/27 14:37:57;;;;;;;0.00;0.00;;;;;;;;;;5070404;28;20055;-84
2022/07/27 14:40:24;;;;;;;0.00;0.00;;;;;;;;;;5053529;28;20139;-85
2022/07/27 14:42:50;;;;;;;0.00;0.00;;;;;;;;;;5054156;28;20037;-84
2022/07/27 14:45:16;;;;;;;0.00;0.00;;;;;;;;;;5070139;28;20503;-84
2022/07/27 14:47:42;;;;;;;0.00;0.00;;;;;;;;;;5070641;28;20063;-84
2022/07/27 14:50:08;;;;;;;0.32;0.00;;;;;;;;;;5070065;28;20123;-83